sensor_id;sensor_type;location;lat;lon;timestamp;P1;durP1;ratioP1;P2;durP2;ratioP2
4365;SDS011;2196;47.422;9.656;2023-12-20T00:01:58;10.60;;;8.30;;
4365;SDS011;2196;47.422;9.656;2023-12-20T00:04:25;11.17;;;9.37;;
4365;SDS011;2196;47.422;9.656;2023-12-20T00:06:55;10.93;;;8.50;;
4365;SDS011;2196;47.422;9.656;2023-12-20T00:09:22;9.57;;;7.77;;
4365;SDS011;2196;47.422;9.656;2023-12-20T00:11:50;8.43;;;6.97;;
4365;SDS011;2196;47.422;9.656;2023-12-20T00:14:17;7.50;;;6.80;;
4365;SDS011;2196;47.422;9.656;2023-12-20T00:16:45;6.63;;;6.03;;
4365;SDS011;2196;47.422;9.656;2023-12-20T00:19:13;9.10;;;6.47;;
4365;SDS011;2196;47.422;9.656;2023-12-20T00:21:40;9.83;;;7.47;;
4365;SDS011;2196;47.422;9.656;2023-12-20T00:24:07;8.37;;;7.00;;
4365;SDS011;2196;47.422;9.656;2023-12-20T00:26:34;9.27;;;7.67;;
4365;SDS011;2196;47.422;9.656;2023-12-20T00:29:01;8.90;;;8.00;;
4365;SDS011;2196;47.422;9.656;2023-12-20T00:31:28;12.17;;;8.00;;
4365;SDS011;2196;47.422;9.656;2023-12-20T00:33:55;14.07;;;7.77;;
4365;SDS011;2196;47.422;9.656;2023-12-20T00:36:23;10.10;;;7.77;;
4365;SDS011;2196;47.422;9.656;2023-12-20T00:38:50;9.53;;;7.90;;
4365;SDS011;2196;47.422;9.656;2023-12-20T00:41:17;9.27;;;7.90;;
4365;SDS011;2196;47.422;9.656;2023-12-20T00:43:44;9.33;;;7.73;;
4365;SDS011;2196;47.422;9.656;2023-12-20T00:46:11;8.33;;;6.50;;
4365;SDS011;2196;47.422;9.656;2023-12-20T00:48:38;9.87;;;7.47;;
4365;SDS011;2196;47.422;9.656;2023-12-20T00:51:07;7.97;;;7.23;;
4365;SDS011;2196;47.422;9.656;2023-12-20T00:53:35;9.07;;;8.13;;
4365;SDS011;2196;47.422;9.656;2023-12-20T00:56:02;9.47;;;8.00;;
4365;SDS011;2196;47.422;9.656;2023-12-20T00:58:29;10.37;;;7.60;;
4365;SDS011;2196;47.422;9.656;2023-12-20T01:00:57;10.70;;;8.07;;
4365;SDS011;2196;47.422;9.656;2023-12-20T01:03:24;10.43;;;8.33;;
4365;SDS011;2196;47.422;9.656;2023-12-20T01:05:51;8.73;;;7.90;;
4365;SDS011;2196;47.422;9.656;2023-12-20T01:08:18;9.73;;;7.47;;
4365;SDS011;2196;47.422;9.656;2023-12-20T01:10:46;7.50;;;6.80;;
4365;SDS011;2196;47.422;9.656;2023-12-20T01:13:13;7.23;;;6.63;;
4365;SDS011;2196;47.422;9.656;2023-12-20T01:15:40;8.17;;;6.30;;
4365;SDS011;2196;47.422;9.656;2023-12-20T01:18:07;10.07;;;8.40;;
4365;SDS011;2196;47.422;9.656;2023-12-20T01:20:34;9.57;;;7.87;;
4365;SDS011;2196;47.422;9.656;2023-12-20T01:23:01;9.33;;;7.40;;
4365;SDS011;2196;47.422;9.656;2023-12-20T01:25:28;11.43;;;9.13;;
4365;SDS011;2196;47.422;9.656;2023-12-20T01:27:56;13.20;;;10.23;;
4365;SDS011;2196;47.422;9.656;2023-12-20T01:30:23;11.87;;;9.27;;
4365;SDS011;2196;47.422;9.656;2023-12-20T01:32:50;9.47;;;8.03;;
4365;SDS011;2196;47.422;9.656;2023-12-20T01:35:17;11.50;;;9.70;;
4365;SDS011;2196;47.422;9.656;2023-12-20T01:37:44;9.33;;;8.33;;
4365;SDS011;2196;47.422;9.656;2023-12-20T01:40:11;10.60;;;8.50;;
4365;SDS011;2196;47.422;9.656;2023-12-20T01:42:38;12.20;;;8.87;;
4365;SDS011;2196;47.422;9.656;2023-12-20T01:45:07;10.83;;;8.87;;
4365;SDS011;2196;47.422;9.656;2023-12-20T01:47:35;10.33;;;8.60;;
4365;SDS011;2196;47.422;9.656;2023-12-20T01:50:02;11.43;;;9.33;;
4365;SDS011;2196;47.422;9.656;2023-12-20T01:52:33;10.70;;;8.23;;
4365;SDS011;2196;47.422;9.656;2023-12-20T01:55:01;13.40;;;9.17;;
4365;SDS011;2196;47.422;9.656;2023-12-20T01:57:29;9.77;;;8.70;;
4365;SDS011;2196;47.422;9.656;2023-12-20T01:59:56;13.73;;;9.50;;
4365;SDS011;2196;47.422;9.656;2023-12-20T02:02:24;9.47;;;8.37;;
4365;SDS011;2196;47.422;9.656;2023-12-20T02:04:54;13.93;;;9.40;;
4365;SDS011;2196;47.422;9.656;2023-12-20T02:07:21;11.43;;;9.37;;
4365;SDS011;2196;47.422;9.656;2023-12-20T02:09:49;12.10;;;9.80;;
4365;SDS011;2196;47.422;9.656;2023-12-20T02:12:16;16.37;;;9.70;;
4365;SDS011;2196;47.422;9.656;2023-12-20T02:14:43;15.10;;;10.40;;
4365;SDS011;2196;47.422;9.656;2023-12-20T02:17:10;9.97;;;8.93;;
4365;SDS011;2196;47.422;9.656;2023-12-20T02:19:38;12.50;;;9.40;;
4365;SDS011;2196;47.422;9.656;2023-12-20T02:22:07;12.57;;;8.93;;
4365;SDS011;2196;47.422;9.656;2023-12-20T02:24:35;11.03;;;8.93;;
4365;SDS011;2196;47.422;9.656;2023-12-20T02:27:02;9.67;;;8.00;;
4365;SDS011;2196;47.422;9.656;2023-12-20T02:29:30;11.57;;;9.00;;
4365;SDS011;2196;47.422;9.656;2023-12-20T02:31:58;11.90;;;9.20;;
4365;SDS011;2196;47.422;9.656;2023-12-20T02:34:25;10.87;;;8.77;;
4365;SDS011;2196;47.422;9.656;2023-12-20T02:36:52;13.53;;;9.03;;
4365;SDS011;2196;47.422;9.656;2023-12-20T02:39:20;8.77;;;7.87;;
4365;SDS011;2196;47.422;9.656;2023-12-20T02:41:48;9.97;;;8.97;;
4365;SDS011;2196;47.422;9.656;2023-12-20T02:44:15;11.37;;;8.63;;
4365;SDS011;2196;47.422;9.656;2023-12-20T02:46:42;11.87;;;8.73;;
4365;SDS011;2196;47.422;9.656;2023-12-20T02:49:09;10.53;;;9.43;;
4365;SDS011;2196;47.422;9.656;2023-12-20T02:51:36;9.73;;;8.23;;
4365;SDS011;2196;47.422;9.656;2023-12-20T02:54:03;11.83;;;9.17;;
4365;SDS011;2196;47.422;9.656;2023-12-20T02:56:32;11.57;;;8.80;;
4365;SDS011;2196;47.422;9.656;2023-12-20T02:58:59;12.70;;;10.33;;
4365;SDS011;2196;47.422;9.656;2023-12-20T03:01:26;11.67;;;9.40;;
4365;SDS011;2196;47.422;9.656;2023-12-20T03:03:53;12.30;;;10.23;;
4365;SDS011;2196;47.422;9.656;2023-12-20T03:06:20;12.60;;;10.13;;
4365;SDS011;2196;47.422;9.656;2023-12-20T03:08:47;10.57;;;8.43;;
4365;SDS011;2196;47.422;9.656;2023-12-20T03:11:14;9.53;;;8.47;;
4365;SDS011;2196;47.422;9.656;2023-12-20T03:13:42;10.43;;;8.83;;
4365;SDS011;2196;47.422;9.656;2023-12-20T03:16:09;14.70;;;10.57;;
4365;SDS011;2196;47.422;9.656;2023-12-20T03:18:36;14.27;;;11.53;;
4365;SDS011;2196;47.422;9.656;2023-12-20T03:21:04;8.80;;;7.93;;
4365;SDS011;2196;47.422;9.656;2023-12-20T03:23:31;12.73;;;8.93;;
4365;SDS011;2196;47.422;9.656;2023-12-20T03:25:58;12.90;;;8.53;;
4365;SDS011;2196;47.422;9.656;2023-12-20T03:28:26;11.60;;;9.13;;
4365;SDS011;2196;47.422;9.656;2023-12-20T03:30:54;11.40;;;8.97;;
4365;SDS011;2196;47.422;9.656;2023-12-20T03:33:21;10.80;;;7.93;;
4365;SDS011;2196;47.422;9.656;2023-12-20T03:35:48;11.00;;;8.20;;
4365;SDS011;2196;47.422;9.656;2023-12-20T03:38:15;9.53;;;8.00;;
4365;SDS011;2196;47.422;9.656;2023-12-20T03:40:42;13.37;;;9.13;;
4365;SDS011;2196;47.422;9.656;2023-12-20T03:43:09;9.20;;;8.20;;
4365;SDS011;2196;47.422;9.656;2023-12-20T03:45:36;8.30;;;6.93;;
4365;SDS011;2196;47.422;9.656;2023-12-20T03:48:04;11.20;;;8.60;;
4365;SDS011;2196;47.422;9.656;2023-12-20T03:50:32;10.33;;;8.17;;
4365;SDS011;2196;47.422;9.656;2023-12-20T03:52:59;9.97;;;8.93;;
4365;SDS011;2196;47.422;9.656;2023-12-20T03:55:26;10.90;;;9.33;;
4365;SDS011;2196;47.422;9.656;2023-12-20T03:57:53;9.83;;;7.23;;
4365;SDS011;2196;47.422;9.656;2023-12-20T04:00:20;9.93;;;7.23;;
4365;SDS011;2196;47.422;9.656;2023-12-20T04:02:47;9.37;;;8.37;;
4365;SDS011;2196;47.422;9.656;2023-12-20T04:05:15;7.83;;;7.03;;
4365;SDS011;2196;47.422;9.656;2023-12-20T04:07:42;10.67;;;8.10;;
4365;SDS011;2196;47.422;9.656;2023-12-20T04:10:09;11.03;;;8.17;;
4365;SDS011;2196;47.422;9.656;2023-12-20T04:12:36;10.50;;;9.40;;
4365;SDS011;2196;47.422;9.656;2023-12-20T04:15:03;12.93;;;8.63;;
4365;SDS011;2196;47.422;9.656;2023-12-20T04:17:34;9.73;;;7.97;;
4365;SDS011;2196;47.422;9.656;2023-12-20T04:20:01;8.70;;;7.53;;
4365;SDS011;2196;47.422;9.656;2023-12-20T04:22:29;11.27;;;8.30;;
4365;SDS011;2196;47.422;9.656;2023-12-20T04:24:56;8.87;;;7.97;;
4365;SDS011;2196;47.422;9.656;2023-12-20T04:27:23;9.13;;;7.43;;
4365;SDS011;2196;47.422;9.656;2023-12-20T04:29:50;12.00;;;8.50;;
4365;SDS011;2196;47.422;9.656;2023-12-20T04:32:17;10.17;;;7.80;;
4365;SDS011;2196;47.422;9.656;2023-12-20T04:34:44;10.20;;;8.30;;
4365;SDS011;2196;47.422;9.656;2023-12-20T04:37:11;10.73;;;8.43;;
4365;SDS011;2196;47.422;9.656;2023-12-20T04:39:40;11.50;;;10.23;;
4365;SDS011;2196;47.422;9.656;2023-12-20T04:42:07;9.60;;;8.63;;
4365;SDS011;2196;47.422;9.656;2023-12-20T04:44:34;10.60;;;8.83;;
4365;SDS011;2196;47.422;9.656;2023-12-20T04:47:01;11.50;;;8.53;;
4365;SDS011;2196;47.422;9.656;2023-12-20T04:49:28;13.27;;;9.97;;
4365;SDS011;2196;47.422;9.656;2023-12-20T04:51:55;10.37;;;8.50;;
4365;SDS011;2196;47.422;9.656;2023-12-20T04:54:22;10.13;;;8.20;;
4365;SDS011;2196;47.422;9.656;2023-12-20T04:56:53;9.67;;;8.47;;
4365;SDS011;2196;47.422;9.656;2023-12-20T04:59:20;8.47;;;7.67;;
4365;SDS011;2196;47.422;9.656;2023-12-20T05:01:47;10.30;;;9.00;;
4365;SDS011;2196;47.422;9.656;2023-12-20T05:04:14;10.00;;;9.00;;
4365;SDS011;2196;47.422;9.656;2023-12-20T05:06:41;12.50;;;9.13;;
4365;SDS011;2196;47.422;9.656;2023-12-20T05:09:08;11.93;;;9.27;;
4365;SDS011;2196;47.422;9.656;2023-12-20T05:11:35;12.90;;;9.67;;
4365;SDS011;2196;47.422;9.656;2023-12-20T05:14:03;16.83;;;10.37;;
4365;SDS011;2196;47.422;9.656;2023-12-20T05:16:30;12.47;;;10.23;;
4365;SDS011;2196;47.422;9.656;2023-12-20T05:18:57;17.23;;;10.10;;
4365;SDS011;2196;47.422;9.656;2023-12-20T05:21:26;11.47;;;10.13;;
4365;SDS011;2196;47.422;9.656;2023-12-20T05:23:52;13.93;;;9.30;;
4365;SDS011;2196;47.422;9.656;2023-12-20T05:26:19;11.63;;;9.77;;
4365;SDS011;2196;47.422;9.656;2023-12-20T05:28:46;13.40;;;9.50;;
4365;SDS011;2196;47.422;9.656;2023-12-20T05:31:14;11.97;;;10.07;;
4365;SDS011;2196;47.422;9.656;2023-12-20T05:33:41;10.97;;;9.13;;
4365;SDS011;2196;47.422;9.656;2023-12-20T05:36:08;13.83;;;10.10;;
4365;SDS011;2196;47.422;9.656;2023-12-20T05:38:38;12.47;;;10.43;;
4365;SDS011;2196;47.422;9.656;2023-12-20T05:41:05;13.27;;;9.57;;
4365;SDS011;2196;47.422;9.656;2023-12-20T05:43:32;13.10;;;9.73;;
4365;SDS011;2196;47.422;9.656;2023-12-20T05:45:59;15.53;;;10.17;;
4365;SDS011;2196;47.422;9.656;2023-12-20T05:48:27;11.93;;;9.57;;
4365;SDS011;2196;47.422;9.656;2023-12-20T05:50:54;11.30;;;9.27;;
4365;SDS011;2196;47.422;9.656;2023-12-20T05:53:21;12.60;;;10.47;;
4365;SDS011;2196;47.422;9.656;2023-12-20T05:55:48;12.00;;;9.70;;
4365;SDS011;2196;47.422;9.656;2023-12-20T05:58:15;11.50;;;9.43;;
4365;SDS011;2196;47.422;9.656;2023-12-20T06:00:42;11.73;;;8.63;;
4365;SDS011;2196;47.422;9.656;2023-12-20T06:03:09;11.00;;;8.23;;
4365;SDS011;2196;47.422;9.656;2023-12-20T06:05:38;11.00;;;8.37;;
4365;SDS011;2196;47.422;9.656;2023-12-20T06:08:05;10.50;;;9.33;;
4365;SDS011;2196;47.422;9.656;2023-12-20T06:10:32;13.48;;;11.07;;
4365;SDS011;2196;47.422;9.656;2023-12-20T06:12:59;12.87;;;11.57;;
4365;SDS011;2196;47.422;9.656;2023-12-20T06:15:26;11.97;;;10.40;;
4365;SDS011;2196;47.422;9.656;2023-12-20T06:17:53;13.47;;;11.53;;
4365;SDS011;2196;47.422;9.656;2023-12-20T06:20:20;14.20;;;12.33;;
4365;SDS011;2196;47.422;9.656;2023-12-20T06:22:49;14.80;;;11.23;;
4365;SDS011;2196;47.422;9.656;2023-12-20T06:25:16;13.20;;;11.07;;
4365;SDS011;2196;47.422;9.656;2023-12-20T06:27:43;13.77;;;11.67;;
4365;SDS011;2196;47.422;9.656;2023-12-20T06:30:10;11.43;;;10.10;;
4365;SDS011;2196;47.422;9.656;2023-12-20T06:32:37;14.90;;;11.10;;
4365;SDS011;2196;47.422;9.656;2023-12-20T06:35:05;14.93;;;11.63;;
4365;SDS011;2196;47.422;9.656;2023-12-20T06:37:32;14.50;;;11.33;;
4365;SDS011;2196;47.422;9.656;2023-12-20T06:40:01;13.90;;;11.77;;
4365;SDS011;2196;47.422;9.656;2023-12-20T06:42:28;11.87;;;10.67;;
4365;SDS011;2196;47.422;9.656;2023-12-20T06:44:55;13.53;;;10.57;;
4365;SDS011;2196;47.422;9.656;2023-12-20T06:47:21;12.13;;;10.90;;
4365;SDS011;2196;47.422;9.656;2023-12-20T06:49:48;11.13;;;9.67;;
4365;SDS011;2196;47.422;9.656;2023-12-20T06:52:15;13.27;;;10.00;;
4365;SDS011;2196;47.422;9.656;2023-12-20T06:54:42;14.43;;;10.50;;
4365;SDS011;2196;47.422;9.656;2023-12-20T06:57:10;14.23;;;10.40;;
4365;SDS011;2196;47.422;9.656;2023-12-20T06:59:38;15.80;;;10.73;;
4365;SDS011;2196;47.422;9.656;2023-12-20T07:02:05;22.57;;;12.63;;
4365;SDS011;2196;47.422;9.656;2023-12-20T07:04:32;14.33;;;10.53;;
4365;SDS011;2196;47.422;9.656;2023-12-20T07:06:59;12.93;;;8.73;;
4365;SDS011;2196;47.422;9.656;2023-12-20T07:09:26;13.37;;;9.47;;
4365;SDS011;2196;47.422;9.656;2023-12-20T07:11:54;10.67;;;7.97;;
4365;SDS011;2196;47.422;9.656;2023-12-20T07:14:22;8.33;;;7.23;;
4365;SDS011;2196;47.422;9.656;2023-12-20T07:16:51;11.10;;;8.40;;
4365;SDS011;2196;47.422;9.656;2023-12-20T07:19:18;11.70;;;8.37;;
4365;SDS011;2196;47.422;9.656;2023-12-20T07:21:45;8.33;;;7.50;;
4365;SDS011;2196;47.422;9.656;2023-12-20T07:24:12;9.77;;;8.40;;
4365;SDS011;2196;47.422;9.656;2023-12-20T07:26:39;8.70;;;7.80;;
4365;SDS011;2196;47.422;9.656;2023-12-20T07:29:06;12.87;;;8.23;;
4365;SDS011;2196;47.422;9.656;2023-12-20T07:31:34;11.70;;;9.50;;
4365;SDS011;2196;47.422;9.656;2023-12-20T07:34:01;12.00;;;8.90;;
4365;SDS011;2196;47.422;9.656;2023-12-20T07:36:28;8.13;;;7.30;;
4365;SDS011;2196;47.422;9.656;2023-12-20T07:38:55;9.70;;;8.43;;
4365;SDS011;2196;47.422;9.656;2023-12-20T07:41:22;14.20;;;8.80;;
4365;SDS011;2196;47.422;9.656;2023-12-20T07:43:48;15.43;;;8.97;;
4365;SDS011;2196;47.422;9.656;2023-12-20T07:46:16;13.40;;;9.27;;
4365;SDS011;2196;47.422;9.656;2023-12-20T07:48:45;13.83;;;9.57;;
4365;SDS011;2196;47.422;9.656;2023-12-20T07:51:12;22.27;;;10.37;;
4365;SDS011;2196;47.422;9.656;2023-12-20T07:53:39;13.53;;;9.00;;
4365;SDS011;2196;47.422;9.656;2023-12-20T07:56:13;12.13;;;9.97;;
4365;SDS011;2196;47.422;9.656;2023-12-20T07:58:41;17.83;;;9.97;;
4365;SDS011;2196;47.422;9.656;2023-12-20T08:01:08;11.67;;;9.27;;
4365;SDS011;2196;47.422;9.656;2023-12-20T08:03:35;12.53;;;9.10;;
4365;SDS011;2196;47.422;9.656;2023-12-20T08:06:04;17.23;;;10.70;;
4365;SDS011;2196;47.422;9.656;2023-12-20T08:08:31;16.73;;;9.87;;
4365;SDS011;2196;47.422;9.656;2023-12-20T08:10:58;10.20;;;8.93;;
4365;SDS011;2196;47.422;9.656;2023-12-20T08:13:25;11.63;;;9.03;;
4365;SDS011;2196;47.422;9.656;2023-12-20T08:15:52;15.13;;;9.83;;
4365;SDS011;2196;47.422;9.656;2023-12-20T08:18:20;11.60;;;8.73;;
4365;SDS011;2196;47.422;9.656;2023-12-20T08:20:48;10.97;;;9.07;;
4365;SDS011;2196;47.422;9.656;2023-12-20T08:23:16;9.80;;;8.83;;
4365;SDS011;2196;47.422;9.656;2023-12-20T08:25:43;13.83;;;10.63;;
4365;SDS011;2196;47.422;9.656;2023-12-20T08:28:11;26.50;;;14.13;;
4365;SDS011;2196;47.422;9.656;2023-12-20T08:30:38;49.57;;;25.10;;
4365;SDS011;2196;47.422;9.656;2023-12-20T08:33:05;27.63;;;18.37;;
4365;SDS011;2196;47.422;9.656;2023-12-20T08:35:36;21.60;;;14.20;;
4365;SDS011;2196;47.422;9.656;2023-12-20T08:38:03;14.60;;;12.30;;
4365;SDS011;2196;47.422;9.656;2023-12-20T08:40:31;19.57;;;13.17;;
4365;SDS011;2196;47.422;9.656;2023-12-20T08:42:58;19.90;;;13.63;;
4365;SDS011;2196;47.422;9.656;2023-12-20T08:45:25;15.70;;;11.17;;
4365;SDS011;2196;47.422;9.656;2023-12-20T08:47:52;16.33;;;9.67;;
4365;SDS011;2196;47.422;9.656;2023-12-20T08:50:19;10.60;;;9.40;;
4365;SDS011;2196;47.422;9.656;2023-12-20T08:52:46;13.13;;;9.97;;
4365;SDS011;2196;47.422;9.656;2023-12-20T08:55:13;9.00;;;8.10;;
4365;SDS011;2196;47.422;9.656;2023-12-20T08:57:43;11.03;;;8.80;;
4365;SDS011;2196;47.422;9.656;2023-12-20T09:00:10;10.53;;;9.03;;
4365;SDS011;2196;47.422;9.656;2023-12-20T09:02:38;12.40;;;8.43;;
4365;SDS011;2196;47.422;9.656;2023-12-20T09:05:04;11.40;;;8.40;;
4365;SDS011;2196;47.422;9.656;2023-12-20T09:07:31;13.43;;;8.33;;
4365;SDS011;2196;47.422;9.656;2023-12-20T09:09:58;12.90;;;9.23;;
4365;SDS011;2196;47.422;9.656;2023-12-20T09:12:29;10.47;;;9.37;;
4365;SDS011;2196;47.422;9.656;2023-12-20T09:15:00;16.17;;;9.93;;
4365;SDS011;2196;47.422;9.656;2023-12-20T09:17:28;12.07;;;9.70;;
4365;SDS011;2196;47.422;9.656;2023-12-20T09:19:55;15.33;;;10.00;;
4365;SDS011;2196;47.422;9.656;2023-12-20T09:22:22;13.57;;;9.10;;
4365;SDS011;2196;47.422;9.656;2023-12-20T09:24:49;10.00;;;9.00;;
4365;SDS011;2196;47.422;9.656;2023-12-20T09:27:15;10.20;;;8.90;;
4365;SDS011;2196;47.422;9.656;2023-12-20T09:29:42;11.57;;;8.83;;
4365;SDS011;2196;47.422;9.656;2023-12-20T09:32:11;13.77;;;10.43;;
4365;SDS011;2196;47.422;9.656;2023-12-20T09:34:38;12.37;;;10.33;;
4365;SDS011;2196;47.422;9.656;2023-12-20T09:37:05;12.47;;;10.53;;
4365;SDS011;2196;47.422;9.656;2023-12-20T09:39:32;12.10;;;10.67;;
4365;SDS011;2196;47.422;9.656;2023-12-20T09:42:00;12.57;;;10.10;;
4365;SDS011;2196;47.422;9.656;2023-12-20T09:44:28;12.50;;;11.03;;
4365;SDS011;2196;47.422;9.656;2023-12-20T09:46:56;10.10;;;8.50;;
4365;SDS011;2196;47.422;9.656;2023-12-20T09:49:25;12.43;;;9.63;;
4365;SDS011;2196;47.422;9.656;2023-12-20T09:51:54;11.87;;;8.80;;
4365;SDS011;2196;47.422;9.656;2023-12-20T09:54:22;11.63;;;8.73;;
4365;SDS011;2196;47.422;9.656;2023-12-20T09:56:49;10.73;;;9.63;;
4365;SDS011;2196;47.422;9.656;2023-12-20T09:59:16;10.70;;;9.47;;
4365;SDS011;2196;47.422;9.656;2023-12-20T10:01:44;12.70;;;10.03;;
4365;SDS011;2196;47.422;9.656;2023-12-20T10:04:11;12.00;;;9.93;;
4365;SDS011;2196;47.422;9.656;2023-12-20T10:06:40;12.97;;;10.43;;
4365;SDS011;2196;47.422;9.656;2023-12-20T10:09:08;18.40;;;11.30;;
4365;SDS011;2196;47.422;9.656;2023-12-20T10:11:36;13.90;;;10.87;;
4365;SDS011;2196;47.422;9.656;2023-12-20T10:14:03;12.03;;;10.63;;
4365;SDS011;2196;47.422;9.656;2023-12-20T10:16:31;13.87;;;11.20;;
4365;SDS011;2196;47.422;9.656;2023-12-20T10:18:59;13.40;;;12.03;;
4365;SDS011;2196;47.422;9.656;2023-12-20T10:21:27;14.13;;;12.47;;
4365;SDS011;2196;47.422;9.656;2023-12-20T10:23:56;13.60;;;10.47;;
4365;SDS011;2196;47.422;9.656;2023-12-20T10:26:24;13.63;;;9.97;;
4365;SDS011;2196;47.422;9.656;2023-12-20T10:28:53;13.37;;;10.17;;
4365;SDS011;2196;47.422;9.656;2023-12-20T10:31:27;12.20;;;9.70;;
4365;SDS011;2196;47.422;9.656;2023-12-20T10:33:55;11.83;;;9.87;;
4365;SDS011;2196;47.422;9.656;2023-12-20T10:36:24;11.20;;;9.27;;
4365;SDS011;2196;47.422;9.656;2023-12-20T10:38:52;10.33;;;9.33;;
4365;SDS011;2196;47.422;9.656;2023-12-20T10:41:23;11.77;;;9.83;;
4365;SDS011;2196;47.422;9.656;2023-12-20T10:43:55;11.77;;;10.40;;
4365;SDS011;2196;47.422;9.656;2023-12-20T10:46:24;13.90;;;10.07;;
4365;SDS011;2196;47.422;9.656;2023-12-20T10:48:53;12.73;;;10.33;;
4365;SDS011;2196;47.422;9.656;2023-12-20T10:51:21;18.90;;;9.83;;
4365;SDS011;2196;47.422;9.656;2023-12-20T10:53:49;11.50;;;10.03;;
4365;SDS011;2196;47.422;9.656;2023-12-20T10:56:17;10.27;;;9.13;;
4365;SDS011;2196;47.422;9.656;2023-12-20T10:58:46;13.83;;;8.90;;
4365;SDS011;2196;47.422;9.656;2023-12-20T11:01:14;11.17;;;9.13;;
4365;SDS011;2196;47.422;9.656;2023-12-20T11:03:43;9.63;;;8.23;;
4365;SDS011;2196;47.422;9.656;2023-12-20T11:06:18;9.70;;;8.80;;
4365;SDS011;2196;47.422;9.656;2023-12-20T11:08:55;9.77;;;8.80;;
4365;SDS011;2196;47.422;9.656;2023-12-20T11:11:35;11.67;;;8.53;;
4365;SDS011;2196;47.422;9.656;2023-12-20T11:14:06;10.07;;;9.17;;
4365;SDS011;2196;47.422;9.656;2023-12-20T11:16:41;15.07;;;10.07;;
4365;SDS011;2196;47.422;9.656;2023-12-20T11:19:08;11.97;;;10.13;;
4365;SDS011;2196;47.422;9.656;2023-12-20T11:21:39;9.73;;;8.77;;
4365;SDS011;2196;47.422;9.656;2023-12-20T11:24:06;11.03;;;9.80;;
4365;SDS011;2196;47.422;9.656;2023-12-20T11:26:33;12.00;;;9.43;;
4365;SDS011;2196;47.422;9.656;2023-12-20T11:31:57;13.37;;;9.90;;
4365;SDS011;2196;47.422;9.656;2023-12-20T11:34:26;13.10;;;10.17;;
4365;SDS011;2196;47.422;9.656;2023-12-20T11:36:58;11.23;;;9.57;;
4365;SDS011;2196;47.422;9.656;2023-12-20T11:39:26;12.17;;;10.80;;
4365;SDS011;2196;47.422;9.656;2023-12-20T11:41:54;15.17;;;11.83;;
4365;SDS011;2196;47.422;9.656;2023-12-20T11:44:22;11.97;;;10.37;;
4365;SDS011;2196;47.422;9.656;2023-12-20T11:46:53;15.27;;;10.73;;
4365;SDS011;2196;47.422;9.656;2023-12-20T11:49:24;14.73;;;11.83;;
4365;SDS011;2196;47.422;9.656;2023-12-20T11:51:52;11.73;;;9.97;;
4365;SDS011;2196;47.422;9.656;2023-12-20T11:54:19;11.93;;;10.40;;
4365;SDS011;2196;47.422;9.656;2023-12-20T11:56:46;14.43;;;10.17;;
4365;SDS011;2196;47.422;9.656;2023-12-20T11:59:17;11.17;;;10.10;;
4365;SDS011;2196;47.422;9.656;2023-12-20T12:01:48;11.13;;;10.03;;
4365;SDS011;2196;47.422;9.656;2023-12-20T12:04:22;12.37;;;10.63;;
4365;SDS011;2196;47.422;9.656;2023-12-20T12:06:52;13.43;;;12.03;;
4365;SDS011;2196;47.422;9.656;2023-12-20T12:09:19;14.70;;;11.63;;
4365;SDS011;2196;47.422;9.656;2023-12-20T12:11:46;24.13;;;16.70;;
4365;SDS011;2196;47.422;9.656;2023-12-20T12:14:13;12.70;;;11.40;;
4365;SDS011;2196;47.422;9.656;2023-12-20T12:16:41;23.60;;;15.10;;
4365;SDS011;2196;47.422;9.656;2023-12-20T12:19:19;21.67;;;12.30;;
4365;SDS011;2196;47.422;9.656;2023-12-20T12:21:48;16.87;;;12.40;;
4365;SDS011;2196;47.422;9.656;2023-12-20T12:24:15;13.17;;;10.27;;
4365;SDS011;2196;47.422;9.656;2023-12-20T12:26:49;20.37;;;14.97;;
4365;SDS011;2196;47.422;9.656;2023-12-20T12:29:20;23.30;;;16.17;;
4365;SDS011;2196;47.422;9.656;2023-12-20T12:31:46;27.27;;;17.23;;
4365;SDS011;2196;47.422;9.656;2023-12-20T12:34:13;22.07;;;15.87;;
4365;SDS011;2196;47.422;9.656;2023-12-20T12:36:41;17.20;;;11.27;;
4365;SDS011;2196;47.422;9.656;2023-12-20T12:39:09;15.20;;;10.13;;
4365;SDS011;2196;47.422;9.656;2023-12-20T12:41:41;11.73;;;8.13;;
4365;SDS011;2196;47.422;9.656;2023-12-20T12:44:08;9.77;;;8.23;;
4365;SDS011;2196;47.422;9.656;2023-12-20T12:46:35;13.20;;;9.93;;
4365;SDS011;2196;47.422;9.656;2023-12-20T12:49:02;13.17;;;9.70;;
4365;SDS011;2196;47.422;9.656;2023-12-20T12:51:29;12.70;;;9.10;;
4365;SDS011;2196;47.422;9.656;2023-12-20T12:53:56;7.93;;;7.23;;
4365;SDS011;2196;47.422;9.656;2023-12-20T12:56:25;8.17;;;6.63;;
4365;SDS011;2196;47.422;9.656;2023-12-20T12:58:52;8.57;;;7.33;;
4365;SDS011;2196;47.422;9.656;2023-12-20T13:01:19;7.63;;;7.00;;
4365;SDS011;2196;47.422;9.656;2023-12-20T13:03:46;10.50;;;9.70;;
4365;SDS011;2196;47.422;9.656;2023-12-20T13:06:13;14.03;;;12.83;;
4365;SDS011;2196;47.422;9.656;2023-12-20T13:08:40;12.10;;;11.13;;
4365;SDS011;2196;47.422;9.656;2023-12-20T13:11:07;8.80;;;8.00;;
4365;SDS011;2196;47.422;9.656;2023-12-20T13:13:35;6.80;;;6.37;;
4365;SDS011;2196;47.422;9.656;2023-12-20T13:16:02;8.67;;;6.17;;
4365;SDS011;2196;47.422;9.656;2023-12-20T13:18:29;5.97;;;5.37;;
4365;SDS011;2196;47.422;9.656;2023-12-20T13:20:56;5.10;;;4.70;;
4365;SDS011;2196;47.422;9.656;2023-12-20T13:23:23;3.90;;;2.37;;
4365;SDS011;2196;47.422;9.656;2023-12-20T13:25:50;3.08;;;2.88;;
4365;SDS011;2196;47.422;9.656;2023-12-20T13:28:17;2.17;;;1.97;;
4365;SDS011;2196;47.422;9.656;2023-12-20T13:30:46;2.20;;;2.00;;
4365;SDS011;2196;47.422;9.656;2023-12-20T13:33:13;1.60;;;1.50;;
4365;SDS011;2196;47.422;9.656;2023-12-20T13:35:40;1.77;;;1.60;;
4365;SDS011;2196;47.422;9.656;2023-12-20T13:38:07;2.17;;;1.40;;
4365;SDS011;2196;47.422;9.656;2023-12-20T13:40:34;0.80;;;0.70;;
4365;SDS011;2196;47.422;9.656;2023-12-20T13:43:01;1.00;;;1.00;;
4365;SDS011;2196;47.422;9.656;2023-12-20T13:45:29;3.03;;;1.80;;
4365;SDS011;2196;47.422;9.656;2023-12-20T13:47:57;21.70;;;9.53;;
4365;SDS011;2196;47.422;9.656;2023-12-20T13:50:25;22.80;;;10.60;;
4365;SDS011;2196;47.422;9.656;2023-12-20T13:52:52;5.53;;;4.03;;
4365;SDS011;2196;47.422;9.656;2023-12-20T13:55:19;2.37;;;1.73;;
4365;SDS011;2196;47.422;9.656;2023-12-20T13:57:50;1.43;;;1.03;;
4365;SDS011;2196;47.422;9.656;2023-12-20T14:00:17;1.37;;;1.00;;
4365;SDS011;2196;47.422;9.656;2023-12-20T14:02:44;1.17;;;1.17;;
4365;SDS011;2196;47.422;9.656;2023-12-20T14:05:12;3.63;;;0.87;;
4365;SDS011;2196;47.422;9.656;2023-12-20T14:07:42;4.77;;;1.30;;
4365;SDS011;2196;47.422;9.656;2023-12-20T14:10:10;1.37;;;1.07;;
4365;SDS011;2196;47.422;9.656;2023-12-20T14:12:38;1.10;;;1.00;;
4365;SDS011;2196;47.422;9.656;2023-12-20T14:15:05;0.93;;;0.80;;
4365;SDS011;2196;47.422;9.656;2023-12-20T14:17:36;0.90;;;0.90;;
4365;SDS011;2196;47.422;9.656;2023-12-20T14:20:03;0.70;;;0.70;;
4365;SDS011;2196;47.422;9.656;2023-12-20T14:22:32;0.90;;;0.90;;
4365;SDS011;2196;47.422;9.656;2023-12-20T14:25:00;1.10;;;1.00;;
4365;SDS011;2196;47.422;9.656;2023-12-20T14:27:27;1.40;;;0.50;;
4365;SDS011;2196;47.422;9.656;2023-12-20T14:29:54;0.50;;;0.30;;
4365;SDS011;2196;47.422;9.656;2023-12-20T14:32:21;0.43;;;0.43;;
4365;SDS011;2196;47.422;9.656;2023-12-20T14:34:49;0.43;;;0.43;;
4365;SDS011;2196;47.422;9.656;2023-12-20T14:37:15;0.40;;;0.40;;
4365;SDS011;2196;47.422;9.656;2023-12-20T14:39:44;0.70;;;0.70;;
4365;SDS011;2196;47.422;9.656;2023-12-20T14:42:11;0.53;;;0.53;;
4365;SDS011;2196;47.422;9.656;2023-12-20T14:44:39;0.60;;;0.60;;
4365;SDS011;2196;47.422;9.656;2023-12-20T14:47:06;1.93;;;0.50;;
4365;SDS011;2196;47.422;9.656;2023-12-20T14:49:33;1.43;;;0.70;;
4365;SDS011;2196;47.422;9.656;2023-12-20T14:52:00;0.50;;;0.50;;
4365;SDS011;2196;47.422;9.656;2023-12-20T14:54:28;0.60;;;0.60;;
4365;SDS011;2196;47.422;9.656;2023-12-20T14:56:57;0.63;;;0.60;;
4365;SDS011;2196;47.422;9.656;2023-12-20T14:59:24;0.50;;;0.50;;
4365;SDS011;2196;47.422;9.656;2023-12-20T15:01:51;0.50;;;0.50;;
4365;SDS011;2196;47.422;9.656;2023-12-20T15:04:18;0.77;;;0.77;;
4365;SDS011;2196;47.422;9.656;2023-12-20T15:06:54;1.53;;;0.97;;
4365;SDS011;2196;47.422;9.656;2023-12-20T15:09:21;0.90;;;0.90;;